Station Historical Data
Daily Summary for October 18, 2017 Units:  English    Metric   Both
« Previous Day
Next Day »
Daily Weekly Monthly Yearly Custom
  High: Low: Average:
Temperature: 67.3 °F 50.1 °F 57.7 °F
Dew Point: 54.6 °F 42.5 °F 47.6 °F
Humidity: 82% 51% 70%
Wind Speed: 13.0mph 0.0mph 3mph
Wind Gust: 20.0mph - -
Wind- - SW
Pressure: 30.28 in 30.12 in -
Precipitation: 0.00 in    
Historical Graphs
 
 
Tabular Data for October 18, 2017
Time Temperature Dew Point Pressure Wind Wind Speed Wind Gust Humidity Rainfall Rate (Hourly)
00:04 55.1 °F 42.7 °F 30.19 in SSW 4.0 mph 9.0 mph 63% 0.00 in
00:09 54.9 °F 42.9 °F 30.20 in SSW 3.0 mph 9.0 mph 64% 0.00 in
00:14 54.9 °F 42.9 °F 30.20 in SSW 3.0 mph 8.0 mph 64% 0.00 in
00:19 54.8 °F 42.9 °F 30.20 in WSW 5.0 mph 7.0 mph 64% 0.00 in
00:24 54.9 °F 42.9 °F 30.20 in SW 4.0 mph 7.0 mph 64% 0.00 in
00:34 55.1 °F 43.1 °F 30.20 in SW 3.0 mph 10.0 mph 64% 0.00 in
00:39 55.0 °F 43.0 °F 30.20 in SSW 4.0 mph 10.0 mph 64% 0.00 in
00:44 54.9 °F 43.4 °F 30.20 in SW 2.0 mph 9.0 mph 65% 0.00 in
00:49 54.9 °F 43.4 °F 30.20 in SW 6.0 mph 7.0 mph 65% 0.00 in
00:54 55.0 °F 43.4 °F 30.20 in SW 3.0 mph 8.0 mph 65% 0.00 in
00:59 55.2 °F 43.6 °F 30.20 in SW 4.0 mph 10.0 mph 65% 0.00 in
01:04 55.3 °F 43.7 °F 30.20 in SSW 4.0 mph 8.0 mph 65% 0.00 in
01:09 55.4 °F 44.2 °F 30.19 in SW 3.0 mph 8.0 mph 66% 0.00 in
01:14 55.6 °F 44.4 °F 30.20 in SW 4.0 mph 9.0 mph 66% 0.00 in
01:19 55.8 °F 44.6 °F 30.20 in SW 4.0 mph 9.0 mph 66% 0.00 in
01:24 55.9 °F 44.7 °F 30.20 in SW 4.0 mph 9.0 mph 66% 0.00 in
01:29 56.0 °F 44.8 °F 30.20 in SW 3.0 mph 9.0 mph 66% 0.00 in
01:34 56.2 °F 44.6 °F 30.20 in SW 4.0 mph 9.0 mph 65% 0.00 in
01:39 56.1 °F 44.5 °F 30.20 in SSW 2.0 mph 9.0 mph 65% 0.00 in
01:44 56.0 °F 44.4 °F 30.20 in SSW 2.0 mph 6.0 mph 65% 0.00 in
01:49 55.7 °F 44.1 °F 30.20 in SSW 2.0 mph 7.0 mph 65% 0.00 in
01:54 55.2 °F 43.6 °F 30.20 in WSW 1.0 mph 8.0 mph 65% 0.00 in
01:59 54.8 °F 43.3 °F 30.20 in South 8.0 mph 8.0 mph 65% 0.00 in
02:04 54.7 °F 43.2 °F 30.20 in SSW 2.0 mph 8.0 mph 65% 0.00 in
02:09 54.5 °F 43.0 °F 30.20 in SW 3.0 mph 8.0 mph 65% 0.00 in
02:14 54.2 °F 42.7 °F 30.20 in SW 3.0 mph 7.0 mph 65% 0.00 in
02:19 54.0 °F 42.9 °F 30.21 in SW 3.0 mph 8.0 mph 66% 0.00 in
02:24 53.8 °F 42.7 °F 30.21 in SW 3.0 mph 8.0 mph 66% 0.00 in
02:29 53.6 °F 42.5 °F 30.21 in SW 3.0 mph 7.0 mph 66% 0.00 in
02:34 53.4 °F 42.7 °F 30.21 in SW 3.0 mph 7.0 mph 67% 0.00 in
02:39 53.4 °F 42.7 °F 30.21 in SW 2.0 mph 4.0 mph 67% 0.00 in
02:44 53.4 °F 43.1 °F 30.21 in SW 4.0 mph 5.0 mph 68% 0.00 in
02:49 53.3 °F 43.0 °F 30.21 in SW 2.0 mph 6.0 mph 68% 0.00 in
02:54 53.3 °F 43.0 °F 30.21 in SW 1.0 mph 4.0 mph 68% 0.00 in
02:59 53.1 °F 43.2 °F 30.21 in SW 2.0 mph 5.0 mph 69% 0.00 in
03:04 53.3 °F 43.4 °F 30.21 in SW 3.0 mph 5.0 mph 69% 0.00 in
03:09 53.5 °F 43.6 °F 30.21 in SW 2.0 mph 6.0 mph 69% 0.00 in
03:14 53.5 °F 44.0 °F 30.21 in SW 2.0 mph 6.0 mph 70% 0.00 in
03:19 53.4 °F 43.9 °F 30.21 in SW 2.0 mph 6.0 mph 70% 0.00 in
03:24 53.6 °F 44.4 °F 30.21 in SW 2.0 mph 6.0 mph 71% 0.00 in
03:29 53.5 °F 44.3 °F 30.21 in Calm   6.0 mph 71% 0.00 in
03:34 53.6 °F 44.4 °F 30.21 in Calm   5.0 mph 71% 0.00 in
03:39 53.4 °F 44.2 °F 30.21 in Calm   4.0 mph 71% 0.00 in
03:44 53.4 °F 44.6 °F 30.21 in Calm   3.0 mph 72% 0.00 in
03:49 53.3 °F 44.9 °F 30.21 in SSW 1.0 mph 4.0 mph 73% 0.00 in
03:54 53.3 °F 45.2 °F 30.22 in SSW 1.0 mph 4.0 mph 74% 0.00 in
03:59 53.3 °F 45.2 °F 30.22 in SSW 1.0 mph 4.0 mph 74% 0.00 in
04:04 53.2 °F 45.1 °F 30.22 in Calm   5.0 mph 74% 0.00 in
04:09 53.1 °F 45.4 °F 30.22 in SW 1.0 mph 3.0 mph 75% 0.00 in
04:14 53.0 °F 45.3 °F 30.22 in SW 2.0 mph 4.0 mph 75% 0.00 in
04:19 53.0 °F 45.3 °F 30.22 in SW 1.0 mph 5.0 mph 75% 0.00 in
04:24 53.1 °F 45.4 °F 30.22 in SSW 2.0 mph 6.0 mph 75% 0.00 in
04:29 53.2 °F 45.5 °F 30.22 in SSW 2.0 mph 6.0 mph 75% 0.00 in
04:34 53.2 °F 45.5 °F 30.22 in SSW 2.0 mph 5.0 mph 75% 0.00 in
04:39 53.1 °F 45.4 °F 30.22 in SSW 2.0 mph 5.0 mph 75% 0.00 in
04:44 52.6 °F 44.9 °F 30.23 in Calm   2.0 mph 75% 0.00 in
04:54 51.7 °F 44.4 °F 30.23 in Calm     76% 0.00 in
04:59 51.4 °F 44.4 °F 30.23 in Calm     77% 0.00 in
05:04 50.9 °F 43.9 °F 30.23 in Calm   1.0 mph 77% 0.00 in
05:09 50.6 °F 44.0 °F 30.23 in Calm   1.0 mph 78% 0.00 in
05:14 50.6 °F 44.3 °F 30.23 in Calm   3.0 mph 79% 0.00 in
05:19 50.7 °F 44.4 °F 30.23 in Calm   1.0 mph 79% 0.00 in
05:24 50.8 °F 44.5 °F 30.23 in SSW 1.0 mph 2.0 mph 79% 0.00 in
05:29 50.8 °F 44.2 °F 30.24 in Calm   3.0 mph 78% 0.00 in
05:34 50.7 °F 44.4 °F 30.24 in Calm   3.0 mph 79% 0.00 in
05:39 50.6 °F 44.3 °F 30.23 in Calm     79% 0.00 in
05:44 50.5 °F 44.2 °F 30.23 in Calm   1.0 mph 79% 0.00 in
05:49 50.4 °F 44.1 °F 30.23 in Calm   1.0 mph 79% 0.00 in
05:54 50.2 °F 44.3 °F 30.23 in Calm     80% 0.00 in
05:59 50.1 °F 44.2 °F 30.24 in Calm     80% 0.00 in
06:04 50.1 °F 44.5 °F 30.24 in Calm     81% 0.00 in
06:09 50.4 °F 44.8 °F 30.24 in Calm   3.0 mph 81% 0.00 in
06:14 50.5 °F 44.9 °F 30.24 in Calm   3.0 mph 81% 0.00 in
06:19 50.6 °F 45.0 °F 30.24 in Calm     81% 0.00 in
06:24 50.8 °F 45.5 °F 30.24 in Calm   3.0 mph 82% 0.00 in
06:29 50.9 °F 45.3 °F 30.24 in Calm     81% 0.00 in
06:34 51.2 °F 45.9 °F 30.24 in SW 1.0 mph 4.0 mph 82% 0.00 in
06:39 51.6 °F 46.0 °F 30.24 in SW 1.0 mph 4.0 mph 81% 0.00 in
06:44 51.6 °F 46.0 °F 30.24 in SW 1.0 mph 3.0 mph 81% 0.00 in
06:49 51.5 °F 45.9 °F 30.24 in SSW 1.0 mph 4.0 mph 81% 0.00 in
06:54 51.5 °F 45.9 °F 30.25 in SSW 1.0 mph 4.0 mph 81% 0.00 in
06:59 51.5 °F 45.9 °F 30.25 in Calm   3.0 mph 81% 0.00 in
07:04 51.3 °F 45.7 °F 30.25 in Calm   5.0 mph 81% 0.00 in
07:09 51.4 °F 46.1 °F 30.25 in SW 1.0 mph 5.0 mph 82% 0.00 in
07:14 51.7 °F 46.4 °F 30.25 in SW 1.0 mph 4.0 mph 82% 0.00 in
07:19 51.8 °F 46.2 °F 30.25 in Calm   3.0 mph 81% 0.00 in
07:24 51.4 °F 45.8 °F 30.25 in Calm     81% 0.00 in
07:29 50.9 °F 45.3 °F 30.25 in Calm     81% 0.00 in
07:34 50.7 °F 45.4 °F 30.25 in SSW 1.0 mph 3.0 mph 82% 0.00 in
07:39 50.9 °F 45.6 °F 30.25 in SSW 1.0 mph 6.0 mph 82% 0.00 in
07:44 51.3 °F 46.0 °F 30.25 in SW 1.0 mph 6.0 mph 82% 0.00 in
07:49 51.5 °F 46.2 °F 30.25 in Calm   3.0 mph 82% 0.00 in
07:54 51.8 °F 46.2 °F 30.25 in SSW 2.0 mph 5.0 mph 81% 0.00 in
07:59 52.2 °F 46.2 °F 30.25 in Calm   5.0 mph 80% 0.00 in
08:04 52.5 °F 46.5 °F 30.26 in SW 3.0 mph 4.0 mph 80% 0.00 in
08:09 52.7 °F 46.4 °F 30.26 in SSW 3.0 mph 5.0 mph 79% 0.00 in
08:14 53.1 °F 46.8 °F 30.26 in SSW 1.0 mph 8.0 mph 79% 0.00 in
08:19 53.1 °F 46.4 °F 30.26 in SSW 2.0 mph 8.0 mph 78% 0.00 in
08:24 53.2 °F 46.5 °F 30.26 in SSW 3.0 mph 8.0 mph 78% 0.00 in
08:29 53.5 °F 46.5 °F 30.26 in SW 3.0 mph 8.0 mph 77% 0.00 in
08:34 53.9 °F 46.9 °F 30.27 in SW 7.0 mph 9.0 mph 77% 0.00 in
08:39 54.4 °F 47.0 °F 30.27 in West 2.0 mph 8.0 mph 76% 0.00 in
08:44 54.7 °F 47.3 °F 30.27 in SW 4.0 mph 8.0 mph 76% 0.00 in
08:49 55.2 °F 47.4 °F 30.27 in SW 3.0 mph 7.0 mph 75% 0.00 in
08:54 55.5 °F 47.3 °F 30.27 in SW 2.0 mph 8.0 mph 74% 0.00 in
08:59 56.0 °F 47.8 °F 30.27 in SSW 5.0 mph 7.0 mph 74% 0.00 in
09:04 56.3 °F 47.8 °F 30.28 in SSW 4.0 mph 7.0 mph 73% 0.00 in
09:09 56.7 °F 47.8 °F 30.28 in SW 4.0 mph 9.0 mph 72% 0.00 in
09:14 57.0 °F 48.1 °F 30.28 in SW 4.0 mph 7.0 mph 72% 0.00 in
09:19 57.3 °F 48.0 °F 30.28 in SW 3.0 mph 8.0 mph 71% 0.00 in
09:24 57.6 °F 48.6 °F 30.28 in SW 4.0 mph 9.0 mph 72% 0.00 in
09:29 57.9 °F 48.6 °F 30.28 in SW 4.0 mph 9.0 mph 71% 0.00 in
09:34 58.3 °F 48.6 °F 30.28 in SW 4.0 mph 10.0 mph 70% 0.00 in
09:39 58.6 °F 48.8 °F 30.28 in SW 9.0 mph 10.0 mph 70% 0.00 in
09:44 58.6 °F 48.5 °F 30.28 in SW 4.0 mph 11.0 mph 69% 0.00 in
09:49 59.0 °F 48.8 °F 30.28 in SW 5.0 mph 11.0 mph 69% 0.00 in
09:54 59.4 °F 49.2 °F 30.28 in SW 5.0 mph 10.0 mph 69% 0.00 in
09:59 59.6 °F 49.0 °F 30.28 in SW 4.0 mph 13.0 mph 68% 0.00 in
10:04 59.8 °F 49.2 °F 30.28 in SW 9.0 mph 11.0 mph 68% 0.00 in
10:09 59.8 °F 49.2 °F 30.28 in WSW 4.0 mph 13.0 mph 68% 0.00 in
10:14 59.9 °F 49.3 °F 30.28 in SW 4.0 mph 12.0 mph 68% 0.00 in
10:19 60.2 °F 49.6 °F 30.28 in SW 6.0 mph 13.0 mph 68% 0.00 in
10:24 60.4 °F 49.8 °F 30.28 in SW 6.0 mph 13.0 mph 68% 0.00 in
10:29 60.5 °F 49.9 °F 30.28 in SW 6.0 mph 14.0 mph 68% 0.00 in
10:34 61.3 °F 50.6 °F 30.28 in SW 5.0 mph 14.0 mph 68% 0.00 in
10:39 61.8 °F 50.7 °F 30.28 in WSW 9.0 mph 9.0 mph 67% 0.00 in
10:44 61.9 °F 51.2 °F 30.28 in SW 2.0 mph 11.0 mph 68% 0.00 in
10:49 61.9 °F 51.2 °F 30.28 in SW 10.0 mph 12.0 mph 68% 0.00 in
10:54 61.6 °F 50.9 °F 30.28 in SW 6.0 mph 13.0 mph 68% 0.00 in
10:59 61.8 °F 51.1 °F 30.28 in SW 7.0 mph 15.0 mph 68% 0.00 in
11:04 62.3 °F 51.6 °F 30.28 in WSW 11.0 mph 11.0 mph 68% 0.00 in
11:09 62.4 °F 51.7 °F 30.28 in WSW 8.0 mph 13.0 mph 68% 0.00 in
11:14 62.7 °F 52.4 °F 30.28 in West 4.0 mph 14.0 mph 69% 0.00 in
11:19 63.2 °F 52.1 °F 30.28 in SW 3.0 mph 9.0 mph 67% 0.00 in
11:24 63.0 °F 52.3 °F 30.28 in WSW 7.0 mph 15.0 mph 68% 0.00 in
11:29 63.2 °F 52.1 °F 30.27 in WSW 7.0 mph 15.0 mph 67% 0.00 in
11:34 63.5 °F 53.1 °F 30.27 in WSW 6.0 mph 11.0 mph 69% 0.00 in
11:39 63.6 °F 52.8 °F 30.27 in South 4.0 mph 15.0 mph 68% 0.00 in
11:44 63.5 °F 52.7 °F 30.27 in WSW 8.0 mph 14.0 mph 68% 0.00 in
11:49 63.9 °F 53.1 °F 30.27 in SW 4.0 mph 14.0 mph 68% 0.00 in
11:54 64.0 °F 53.2 °F 30.27 in WSW 8.0 mph 15.0 mph 68% 0.00 in
11:59 63.9 °F 52.7 °F 30.27 in SW 8.0 mph 15.0 mph 67% 0.00 in
12:04 64.1 °F 53.3 °F 30.27 in WSW 5.0 mph 15.0 mph 68% 0.00 in
12:09 64.1 °F 53.3 °F 30.27 in SW 6.0 mph 14.0 mph 68% 0.00 in
12:14 64.7 °F 53.5 °F 30.26 in SSW 7.0 mph 14.0 mph 67% 0.00 in
12:19 64.9 °F 53.7 °F 30.26 in WSW 4.0 mph 12.0 mph 67% 0.00 in
12:24 65.2 °F 54.0 °F 30.26 in WSW 2.0 mph 12.0 mph 67% 0.00 in
12:29 65.1 °F 53.5 °F 30.26 in WSW 6.0 mph 13.0 mph 66% 0.00 in
12:34 65.0 °F 53.8 °F 30.26 in WSW 7.0 mph 18.0 mph 67% 0.00 in
12:39 65.3 °F 53.6 °F 30.25 in WSW 7.0 mph 20.0 mph 66% 0.00 in
12:44 65.2 °F 53.6 °F 30.25 in WSW 7.0 mph 20.0 mph 66% 0.00 in
12:49 65.0 °F 53.8 °F 30.25 in SW 6.0 mph 16.0 mph 67% 0.00 in
12:54 65.0 °F 54.2 °F 30.25 in West 6.0 mph 15.0 mph 68% 0.00 in
12:59 65.0 °F 53.8 °F 30.25 in WSW 8.0 mph 17.0 mph 67% 0.00 in
13:04 65.1 °F 54.3 °F 30.24 in WNW 4.0 mph 18.0 mph 68% 0.00 in
13:09 65.4 °F 54.6 °F 30.24 in SW 5.0 mph 17.0 mph 68% 0.00 in
13:14 65.6 °F 53.9 °F 30.24 in SW 13.0 mph 20.0 mph 66% 0.00 in
13:19 65.7 °F 54.0 °F 30.24 in WSW 11.0 mph 14.0 mph 66% 0.00 in
13:24 65.7 °F 54.0 °F 30.23 in West 3.0 mph 15.0 mph 66% 0.00 in
13:29 66.0 °F 53.9 °F 30.23 in WSW 7.0 mph 15.0 mph 65% 0.00 in
13:34 65.9 °F 53.8 °F 30.22 in WSW 7.0 mph 14.0 mph 65% 0.00 in
13:39 65.7 °F 53.6 °F 30.22 in WSW 7.0 mph 15.0 mph 65% 0.00 in
13:44 65.9 °F 52.1 °F 30.22 in WSW 8.0 mph 15.0 mph 61% 0.00 in
13:49 66.0 °F 52.2 °F 30.22 in WSW 8.0 mph 15.0 mph 61% 0.00 in
13:54 66.5 °F 52.6 °F 30.22 in WNW 9.0 mph 12.0 mph 61% 0.00 in
13:59 66.7 °F 51.5 °F 30.21 in WSW 6.0 mph 13.0 mph 58% 0.00 in
14:04 66.7 °F 50.0 °F 30.21 in SW 7.0 mph 17.0 mph 55% 0.00 in
14:09 66.7 °F 49.0 °F 30.21 in SW 13.0 mph 16.0 mph 53% 0.00 in
14:14 66.8 °F 49.1 °F 30.21 in WSW 8.0 mph 15.0 mph 53% 0.00 in
14:19 66.8 °F 49.1 °F 30.21 in WSW 11.0 mph 17.0 mph 53% 0.00 in
14:24 66.4 °F 48.2 °F 30.20 in SW 5.0 mph 15.0 mph 52% 0.00 in
14:29 66.3 °F 49.2 °F 30.20 in West 7.0 mph 12.0 mph 54% 0.00 in
14:34 67.3 °F 51.1 °F 30.20 in WSW 6.0 mph 12.0 mph 56% 0.00 in
14:39 67.0 °F 48.8 °F 30.20 in WSW 6.0 mph 13.0 mph 52% 0.00 in
14:44 66.9 °F 49.2 °F 30.20 in WSW 7.0 mph 13.0 mph 53% 0.00 in
14:49 66.9 °F 49.2 °F 30.20 in SSW 10.0 mph 15.0 mph 53% 0.00 in
14:54 66.9 °F 49.2 °F 30.20 in WSW 5.0 mph 17.0 mph 53% 0.00 in
14:59 66.9 °F 48.7 °F 30.20 in WSW 3.0 mph 12.0 mph 52% 0.00 in
15:04 67.0 °F 49.3 °F 30.19 in WSW 6.0 mph 14.0 mph 53% 0.00 in
15:09 66.6 °F 47.9 °F 30.19 in WSW 7.0 mph 14.0 mph 51% 0.00 in
15:14 66.4 °F 47.7 °F 30.19 in WSW 7.0 mph 13.0 mph 51% 0.00 in
15:19 66.6 °F 47.9 °F 30.19 in WSW 7.0 mph 12.0 mph 51% 0.00 in
15:24 67.0 °F 48.8 °F 30.19 in WSW 6.0 mph 13.0 mph 52% 0.00 in
15:29 66.6 °F 47.9 °F 30.19 in SSW 5.0 mph 11.0 mph 51% 0.00 in
15:34 66.6 °F 47.9 °F 30.19 in West 5.0 mph 12.0 mph 51% 0.00 in
15:44 66.7 °F 48.5 °F 30.19 in NW 6.0 mph 11.0 mph 52% 0.00 in
15:49 66.9 °F 48.7 °F 30.18 in West 9.0 mph 12.0 mph 52% 0.00 in
15:54 66.5 °F 48.3 °F 30.18 in WSW 8.0 mph 11.0 mph 52% 0.00 in
15:59 66.8 °F 48.6 °F 30.18 in WSW 3.0 mph 12.0 mph 52% 0.00 in
16:04 66.7 °F 48.5 °F 30.18 in West 9.0 mph 11.0 mph 52% 0.00 in
16:09 66.6 °F 48.4 °F 30.18 in WSW 7.0 mph 10.0 mph 52% 0.00 in
16:14 66.3 °F 48.1 °F 30.18 in SW 6.0 mph 10.0 mph 52% 0.00 in
16:19 66.3 °F 48.1 °F 30.18 in WSW 5.0 mph 10.0 mph 52% 0.00 in
16:24 66.3 °F 48.1 °F 30.18 in WSW 5.0 mph 10.0 mph 52% 0.00 in
16:29 66.4 °F 48.7 °F 30.18 in West 6.0 mph 11.0 mph 53% 0.00 in
16:34 66.5 °F 49.3 °F 30.18 in West 2.0 mph 7.0 mph 54% 0.00 in
16:39 66.3 °F 49.2 °F 30.18 in West 4.0 mph 8.0 mph 54% 0.00 in
16:44 66.3 °F 49.6 °F 30.18 in West 7.0 mph 8.0 mph 55% 0.00 in
16:49 65.8 °F 49.7 °F 30.17 in WNW 4.0 mph 7.0 mph 56% 0.00 in
16:54 65.6 °F 49.5 °F 30.17 in SW 3.0 mph 8.0 mph 56% 0.00 in
16:59 65.6 °F 50.0 °F 30.17 in WNW 3.0 mph 7.0 mph 57% 0.00 in
17:04 65.2 °F 49.1 °F 30.17 in WSW 3.0 mph 12.0 mph 56% 0.00 in
17:09 64.8 °F 49.7 °F 30.17 in WSW 3.0 mph 10.0 mph 58% 0.00 in
17:14 64.6 °F 49.9 °F 30.17 in WSW 3.0 mph 9.0 mph 59% 0.00 in
17:19 64.5 °F 49.8 °F 30.17 in SW 4.0 mph 9.0 mph 59% 0.00 in
17:24 64.2 °F 50.0 °F 30.17 in SW 3.0 mph 8.0 mph 60% 0.00 in
17:29 63.8 °F 49.6 °F 30.17 in WSW 5.0 mph 8.0 mph 60% 0.00 in
17:34 63.6 °F 49.5 °F 30.17 in SW 5.0 mph 12.0 mph 60% 0.00 in
17:39 63.4 °F 49.3 °F 30.17 in WSW 7.0 mph 7.0 mph 60% 0.00 in
17:44 63.2 °F 50.0 °F 30.17 in SW 2.0 mph 8.0 mph 62% 0.00 in
17:49 62.9 °F 49.7 °F 30.17 in WSW 4.0 mph 8.0 mph 62% 0.00 in
17:54 62.7 °F 50.3 °F 30.17 in SW 5.0 mph 6.0 mph 64% 0.00 in
17:59 62.4 °F 50.5 °F 30.17 in SW 3.0 mph 6.0 mph 65% 0.00 in
18:04 62.1 °F 50.6 °F 30.17 in SW 3.0 mph 8.0 mph 66% 0.00 in
18:09 61.7 °F 50.6 °F 30.17 in SW 4.0 mph 8.0 mph 67% 0.00 in
18:14 61.6 °F 50.5 °F 30.17 in WSW 4.0 mph 8.0 mph 67% 0.00 in
18:19 61.6 °F 50.9 °F 30.17 in SW 2.0 mph 8.0 mph 68% 0.00 in
18:24 61.3 °F 51.0 °F 30.17 in Calm   5.0 mph 69% 0.00 in
18:29 60.7 °F 50.9 °F 30.17 in Calm   3.0 mph 70% 0.00 in
18:34 60.1 °F 50.7 °F 30.17 in Calm   3.0 mph 71% 0.00 in
18:39 59.6 °F 50.9 °F 30.17 in Calm   3.0 mph 73% 0.00 in
18:44 59.3 °F 50.6 °F 30.17 in Calm   3.0 mph 73% 0.00 in
18:49 59.0 °F 50.4 °F 30.17 in Calm     73% 0.00 in
18:54 58.6 °F 50.3 °F 30.17 in Calm     74% 0.00 in
18:59 58.2 °F 50.3 °F 30.17 in Calm     75% 0.00 in
19:04 58.0 °F 50.1 °F 30.17 in Calm     75% 0.00 in
19:09 57.6 °F 50.1 °F 30.17 in Calm     76% 0.00 in
19:14 57.3 °F 50.1 °F 30.17 in Calm     77% 0.00 in
19:19 57.3 °F 50.1 °F 30.17 in Calm     77% 0.00 in
19:24 57.1 °F 50.0 °F 30.17 in Calm     77% 0.00 in
19:29 57.0 °F 49.9 °F 30.17 in Calm     77% 0.00 in
19:34 56.7 °F 49.9 °F 30.17 in Calm     78% 0.00 in
19:39 56.5 °F 49.7 °F 30.17 in Calm     78% 0.00 in
19:44 56.3 °F 49.9 °F 30.17 in Calm     79% 0.00 in
19:49 56.2 °F 49.8 °F 30.17 in Calm     79% 0.00 in
19:54 56.0 °F 49.6 °F 30.17 in Calm     79% 0.00 in
19:59 55.8 °F 49.7 °F 30.17 in Calm     80% 0.00 in
20:04 55.7 °F 49.3 °F 30.17 in Calm     79% 0.00 in
20:09 55.6 °F 49.2 °F 30.16 in Calm     79% 0.00 in
20:14 55.5 °F 49.1 °F 30.16 in Calm     79% 0.00 in
20:19 55.3 °F 48.6 °F 30.16 in Calm     78% 0.00 in
20:24 55.4 °F 48.7 °F 30.16 in Calm     78% 0.00 in
20:29 55.2 °F 48.1 °F 30.16 in Calm     77% 0.00 in
20:34 54.8 °F 48.1 °F 30.16 in Calm   3.0 mph 78% 0.00 in
20:39 54.7 °F 48.0 °F 30.16 in Calm   3.0 mph 78% 0.00 in
20:44 54.6 °F 47.9 °F 30.16 in Calm     78% 0.00 in
20:49 54.4 °F 47.7 °F 30.15 in Calm   1.0 mph 78% 0.00 in
20:54 54.2 °F 47.5 °F 30.15 in Calm   1.0 mph 78% 0.00 in
20:59 54.2 °F 47.5 °F 30.15 in Calm   1.0 mph 78% 0.00 in
21:04 53.9 °F 47.2 °F 30.15 in Calm   2.0 mph 78% 0.00 in
21:09 53.7 °F 47.0 °F 30.15 in Calm   2.0 mph 78% 0.00 in
21:14 53.5 °F 47.1 °F 30.15 in Calm     79% 0.00 in
21:19 53.5 °F 47.1 °F 30.15 in Calm     79% 0.00 in
21:24 53.3 °F 47.0 °F 30.15 in Calm     79% 0.00 in
21:29 53.3 °F 47.0 °F 30.15 in Calm     79% 0.00 in
21:34 53.2 °F 46.9 °F 30.15 in Calm     79% 0.00 in
21:39 52.8 °F 46.5 °F 30.14 in Calm     79% 0.00 in
21:44 52.7 °F 46.7 °F 30.14 in Calm     80% 0.00 in
21:49 52.5 °F 46.5 °F 30.14 in Calm   3.0 mph 80% 0.00 in
21:54 52.1 °F 46.1 °F 30.14 in Calm     80% 0.00 in
21:59 51.9 °F 46.3 °F 30.14 in Calm     81% 0.00 in
22:04 51.8 °F 46.2 °F 30.14 in Calm     81% 0.00 in
22:09 51.8 °F 46.2 °F 30.14 in Calm   2.0 mph 81% 0.00 in
22:14 52.2 °F 46.2 °F 30.14 in Calm   3.0 mph 80% 0.00 in
22:19 52.7 °F 46.0 °F 30.14 in SSW 1.0 mph 4.0 mph 78% 0.00 in
22:24 53.3 °F 45.9 °F 30.14 in SSW 2.0 mph 4.0 mph 76% 0.00 in
22:29 53.6 °F 45.5 °F 30.14 in Calm   3.0 mph 74% 0.00 in
22:34 53.6 °F 45.5 °F 30.14 in Calm   4.0 mph 74% 0.00 in
22:39 53.3 °F 45.2 °F 30.14 in Calm     74% 0.00 in
22:44 53.0 °F 44.9 °F 30.13 in Calm     74% 0.00 in
22:49 52.9 °F 44.8 °F 30.13 in Calm   3.0 mph 74% 0.00 in
22:54 52.8 °F 44.7 °F 30.13 in Calm   3.0 mph 74% 0.00 in
22:59 52.5 °F 44.4 °F 30.13 in Calm   3.0 mph 74% 0.00 in
23:04 52.5 °F 44.1 °F 30.13 in SSW 1.0 mph 3.0 mph 73% 0.00 in
23:09 52.4 °F 44.0 °F 30.13 in SSW 1.0 mph 2.0 mph 73% 0.00 in
23:15 52.4 °F 44.0 °F 30.13 in Calm   2.0 mph 73% 0.00 in
23:24 52.2 °F 43.8 °F 30.12 in Calm     73% 0.00 in
23:29 51.9 °F 43.5 °F 30.12 in Calm     73% 0.00 in
23:34 51.5 °F 43.5 °F 30.12 in Calm     74% 0.00 in
23:39 51.4 °F 43.7 °F 30.12 in Calm     75% 0.00 in
23:44 51.1 °F 43.1 °F 30.12 in Calm     74% 0.00 in
23:49 50.9 °F 43.3 °F 30.12 in Calm     75% 0.00 in
23:54 51.0 °F 43.0 °F 30.12 in Calm     74% 0.00 in
23:59 50.8 °F 42.8 °F 30.12 in Calm     74% 0.00 in
Buffalo, New York, USA
Compliments of Weather Underground - 2.5 mb